Relevés horaires St-Hubert (Belgique)


Relevés horaires à St-Hubert - Jeudi 25 Juin 2020
Heure UTC1 Température [°C] Vent [km/h] Hum. [%] Pres.4 [hPa] Visi. [Km] Nébu. [octa] Préc.5 [mm] Cond.
2m. Res. Ros. Dir.2 Vit. Moy. Raf.3
23:00 17.9 17.9 13.6 ESE 7.4 9.3 14.8 76 1014.8(-0.9/3h) 45 0/8 -- --
22:00 18.4 18.4 13.6 E 9.3 9.3 14.8 74 1015(0.2/3h) 45 0/8 -- --
21:00 19.2 19.2 13.7 E 7.4 7.4 13.0 70 1015.5(0.4/3h) 45 0/8 -- --
20:00 20.7 20.7 13.3 ESE 7.4 7.4 9.3 63 1015.2(0.2/3h) 45 5/8 -- --
19:00 22.6 22.6 13.8 ESE 5.6 7.4 9.3 58 1014.3(-0.5/3h) 35 0/8 -- --
18:00 23.9 23.9 12.8 ESE 5.6 9.3 18.5 50 1014.1(-1.1/3h) 35 0/8 0/12h
--
17:00 24.4 24.4 12.5 E 7.4 9.3 14.8 47 1014.2(-1.2/3h) 35 0/8 -- --
16:00 24.9 24.9 13.1 SE 5.6 9.3 14.8 48 1014.4(-1.1/3h) 30 0/8 -- --
15:00 24.9 24.9 11.5 SE 5.6 9.3 18.5 43 1015.1(-1.1/3h) 30 0/8 -- --
14:00 24.4 24.4 12.1 E 5.6 7.4 13.0 46 1015.5(-0.9/3h) 40 0/8 -- --
13:00 24.0 24.0 11.0 ESE 7.4 9.3 18.5 44 1015.9(-0.9/3h) 35 0/8 -- --
12:00 23.3 23.3 11.0 ESE 7.4 11.1 16.7 46 1016.5(-0.4/3h) 29 0/8 0/6h
Ciel clair
11:00 23.3 23.3 11.0 SE 7.4 9.3 16.7 46 1016.6(-0.4/3h) 35 0/8 -- --
10:00 22.2 22.2 9.8 SE 7.4 9.3 16.7 45 1017.2(0.1/3h) 40 0/8 -- Ciel clair
09:00 21.2 21.2 11.4 ESE 7.4 11.1 14.8 54 1017.4(0.0/3h) 35 0/8 -- --
08:00 19.9 19.9 11.8 E 9.3 9.3 14.8 60 1017.7(0.1/3h) 30 0/8 -- --
07:00 18.3 18.3 10.7 E 9.3 9.3 14.8 61 1018.2(-0.4/3h) 35 0/8 -- --
06:00 16.4 16.4 10.3 E 9.3 11.1 16.7 67 1018.4(-0.7/3h) 40 0/8 0/12h
--
05:00 15.1 15.1 9.7 E 7.4 9.3 13.0 70 1018.8(-1.1/3h) 45 0/8 -- --
04:00 13.9 13.4 9.0 E 9.3 9.3 13.0 72 1019.6(-1.0/3h) 45 0/8 -- --
03:00 14.6 14.5 8.4 E 7.4 9.3 13.0 66 1019.6(-1.1/3h) 45 0/8 -- --
02:00 15.2 15.2 8.0 E 7.4 9.3 13.0 62 1019.9(-0.8/3h) 45 0/8 -- --
01:00 15.8 15.8 7.2 E 7.4 9.3 13.0 57 1020.3(-0.4/3h) 45 0/8 -- --
00:00 16.7 16.7 7.2 E 7.4 9.3 13.0 53 1020.3(0.2/3h) 45 0/8 0/6h
0/24h
--

1 Coordinated Universal Time. Actuellement il est 08:00 locale et 06:00 UTC.

2 Le vent souffle depuis la direction indiquée vers la direction oposée.

3 Les rafales max. sont disponible 40 min après l'heure du relevé.

4 Pour les stations d'altitude (plus de 600m) le géopotentiel du niveau le plus proche de la pression obligatoire est indiqué.

5 Les stations disposant d'un diffuseur peuvent indiquer "trace". Cela signifie que des précipitations ont touchés le sol mais que la quantité est inférieure à 0.1 mm.

Récapitulatif de la journée
Température [°C] Vent [km/h] Ensoleillement4 [h] Precipitations totale5 [mm] Pression [Hpa]
Min1 Max.2 Moy.3 Max. Min Max.
13.4 24.9 9.2 18.5 0 h 0 min 0 1014.1 1020.3

1 Température minimale relevée entre 18:00 UTC la veille et 18:00 UTC le jour donné.

2 Température maximale relevée entre 06:00 UTC le jour donné et 06:00 UTC le lendemain.

3 Vent moyen de la journée basé sur les relevés horaires.

4 Ensoleillement en heures relevé entre 06:00 UTC la veille et 06:00 UTC le jour donné.

5 Précipitations totales tombées entre 06:00 UTC la jour donné et 06:00 UTC le lendemain.

Graphiques horaires